sensor_id;sensor_type;location;lat;lon;timestamp;P1;durP1;ratioP1;P2;durP2;ratioP2
69030;SDS011;56083;48.774;8.942;2023-04-24T00:01:25;2.67;;;0.75;;
69030;SDS011;56083;48.774;8.942;2023-04-24T00:03:51;5.78;;;0.90;;
69030;SDS011;56083;48.774;8.942;2023-04-24T00:06:17;3.13;;;0.73;;
69030;SDS011;56083;48.774;8.942;2023-04-24T00:08:42;2.28;;;0.77;;
69030;SDS011;56083;48.774;8.942;2023-04-24T00:11:08;1.88;;;0.77;;
69030;SDS011;56083;48.774;8.942;2023-04-24T00:13:34;5.18;;;0.80;;
69030;SDS011;56083;48.774;8.942;2023-04-24T00:16:00;3.67;;;0.70;;
69030;SDS011;56083;48.774;8.942;2023-04-24T00:18:26;1.65;;;0.68;;
69030;SDS011;56083;48.774;8.942;2023-04-24T00:20:52;3.67;;;0.60;;
69030;SDS011;56083;48.774;8.942;2023-04-24T00:23:17;6.38;;;0.80;;
69030;SDS011;56083;48.774;8.942;2023-04-24T00:25:43;5.40;;;0.95;;
69030;SDS011;56083;48.774;8.942;2023-04-24T00:28:08;1.70;;;0.60;;
69030;SDS011;56083;48.774;8.942;2023-04-24T00:30:34;3.80;;;0.82;;
69030;SDS011;56083;48.774;8.942;2023-04-24T00:33:00;2.58;;;0.80;;
69030;SDS011;56083;48.774;8.942;2023-04-24T00:35:25;5.20;;;0.73;;
69030;SDS011;56083;48.774;8.942;2023-04-24T00:37:51;4.28;;;0.43;;
69030;SDS011;56083;48.774;8.942;2023-04-24T00:40:17;4.13;;;0.65;;
69030;SDS011;56083;48.774;8.942;2023-04-24T00:42:43;1.50;;;0.40;;
69030;SDS011;56083;48.774;8.942;2023-04-24T00:45:09;1.95;;;0.80;;
69030;SDS011;56083;48.774;8.942;2023-04-24T00:47:35;3.33;;;0.60;;
69030;SDS011;56083;48.774;8.942;2023-04-24T00:50:02;2.03;;;0.55;;
69030;SDS011;56083;48.774;8.942;2023-04-24T00:52:31;3.42;;;0.80;;
69030;SDS011;56083;48.774;8.942;2023-04-24T00:54:57;3.22;;;0.50;;
69030;SDS011;56083;48.774;8.942;2023-04-24T00:57:23;3.05;;;0.73;;
69030;SDS011;56083;48.774;8.942;2023-04-24T00:59:50;2.42;;;0.63;;
69030;SDS011;56083;48.774;8.942;2023-04-24T01:02:18;1.50;;;0.70;;
69030;SDS011;56083;48.774;8.942;2023-04-24T01:04:44;3.20;;;0.98;;
69030;SDS011;56083;48.774;8.942;2023-04-24T01:07:10;6.10;;;1.00;;
69030;SDS011;56083;48.774;8.942;2023-04-24T01:09:42;2.05;;;0.65;;
69030;SDS011;56083;48.774;8.942;2023-04-24T01:12:12;5.00;;;0.73;;
69030;SDS011;56083;48.774;8.942;2023-04-24T01:14:37;2.35;;;0.57;;
69030;SDS011;56083;48.774;8.942;2023-04-24T01:17:03;4.43;;;0.90;;
69030;SDS011;56083;48.774;8.942;2023-04-24T01:19:29;3.28;;;0.70;;
69030;SDS011;56083;48.774;8.942;2023-04-24T01:21:54;1.63;;;0.57;;
69030;SDS011;56083;48.774;8.942;2023-04-24T01:24:23;2.92;;;0.80;;
69030;SDS011;56083;48.774;8.942;2023-04-24T01:26:49;3.92;;;0.70;;
69030;SDS011;56083;48.774;8.942;2023-04-24T01:29:15;1.92;;;0.70;;
69030;SDS011;56083;48.774;8.942;2023-04-24T01:31:40;3.85;;;0.65;;
69030;SDS011;56083;48.774;8.942;2023-04-24T01:34:06;1.58;;;0.80;;
69030;SDS011;56083;48.774;8.942;2023-04-24T01:36:33;2.03;;;0.75;;
69030;SDS011;56083;48.774;8.942;2023-04-24T01:39:00;2.58;;;0.90;;
69030;SDS011;56083;48.774;8.942;2023-04-24T01:41:25;2.13;;;0.80;;
69030;SDS011;56083;48.774;8.942;2023-04-24T01:43:52;3.60;;;0.57;;
69030;SDS011;56083;48.774;8.942;2023-04-24T01:46:18;1.02;;;0.60;;
69030;SDS011;56083;48.774;8.942;2023-04-24T01:48:44;3.30;;;0.80;;
69030;SDS011;56083;48.774;8.942;2023-04-24T01:51:10;2.40;;;0.70;;
69030;SDS011;56083;48.774;8.942;2023-04-24T01:53:36;2.13;;;0.70;;
69030;SDS011;56083;48.774;8.942;2023-04-24T01:56:02;2.60;;;0.70;;
69030;SDS011;56083;48.774;8.942;2023-04-24T01:58:28;3.40;;;0.65;;
69030;SDS011;56083;48.774;8.942;2023-04-24T02:00:55;3.55;;;0.77;;
69030;SDS011;56083;48.774;8.942;2023-04-24T02:03:22;8.23;;;0.75;;
69030;SDS011;56083;48.774;8.942;2023-04-24T02:05:48;1.83;;;0.65;;
69030;SDS011;56083;48.774;8.942;2023-04-24T02:08:13;2.03;;;0.60;;
69030;SDS011;56083;48.774;8.942;2023-04-24T02:10:39;5.68;;;1.00;;
69030;SDS011;56083;48.774;8.942;2023-04-24T02:13:05;5.07;;;1.02;;
69030;SDS011;56083;48.774;8.942;2023-04-24T02:15:30;2.30;;;0.68;;
69030;SDS011;56083;48.774;8.942;2023-04-24T02:17:56;3.47;;;0.70;;
69030;SDS011;56083;48.774;8.942;2023-04-24T02:20:21;2.63;;;0.70;;
69030;SDS011;56083;48.774;8.942;2023-04-24T02:22:47;2.78;;;0.88;;
69030;SDS011;56083;48.774;8.942;2023-04-24T02:25:13;4.20;;;0.77;;
69030;SDS011;56083;48.774;8.942;2023-04-24T02:27:38;5.10;;;1.13;;
69030;SDS011;56083;48.774;8.942;2023-04-24T02:30:04;5.70;;;1.00;;
69030;SDS011;56083;48.774;8.942;2023-04-24T02:32:30;3.13;;;0.93;;
69030;SDS011;56083;48.774;8.942;2023-04-24T02:34:56;3.33;;;0.98;;
69030;SDS011;56083;48.774;8.942;2023-04-24T02:37:22;3.75;;;1.20;;
69030;SDS011;56083;48.774;8.942;2023-04-24T02:39:47;5.90;;;1.30;;
69030;SDS011;56083;48.774;8.942;2023-04-24T02:42:13;5.15;;;1.17;;
69030;SDS011;56083;48.774;8.942;2023-04-24T02:44:38;4.53;;;1.52;;
69030;SDS011;56083;48.774;8.942;2023-04-24T02:47:04;3.00;;;1.15;;
69030;SDS011;56083;48.774;8.942;2023-04-24T02:49:29;6.80;;;1.58;;
69030;SDS011;56083;48.774;8.942;2023-04-24T02:51:55;7.03;;;1.30;;
69030;SDS011;56083;48.774;8.942;2023-04-24T02:54:21;4.50;;;1.40;;
69030;SDS011;56083;48.774;8.942;2023-04-24T02:56:46;5.55;;;1.60;;
69030;SDS011;56083;48.774;8.942;2023-04-24T02:59:12;6.30;;;2.10;;
69030;SDS011;56083;48.774;8.942;2023-04-24T03:01:37;4.85;;;2.47;;
69030;SDS011;56083;48.774;8.942;2023-04-24T03:04:03;5.03;;;2.13;;
69030;SDS011;56083;48.774;8.942;2023-04-24T03:06:29;6.55;;;2.22;;
69030;SDS011;56083;48.774;8.942;2023-04-24T03:08:56;6.47;;;3.17;;
69030;SDS011;56083;48.774;8.942;2023-04-24T03:11:21;9.35;;;2.35;;
69030;SDS011;56083;48.774;8.942;2023-04-24T03:13:47;12.50;;;4.45;;
69030;SDS011;56083;48.774;8.942;2023-04-24T03:16:13;9.88;;;5.20;;
69030;SDS011;56083;48.774;8.942;2023-04-24T03:18:38;13.60;;;5.18;;
69030;SDS011;56083;48.774;8.942;2023-04-24T03:21:04;13.35;;;6.07;;
69030;SDS011;56083;48.774;8.942;2023-04-24T03:23:30;10.77;;;5.60;;
69030;SDS011;56083;48.774;8.942;2023-04-24T03:25:55;10.85;;;4.35;;
69030;SDS011;56083;48.774;8.942;2023-04-24T03:28:21;9.13;;;2.85;;
69030;SDS011;56083;48.774;8.942;2023-04-24T03:30:47;5.60;;;2.13;;
69030;SDS011;56083;48.774;8.942;2023-04-24T03:33:13;6.88;;;2.65;;
69030;SDS011;56083;48.774;8.942;2023-04-24T03:35:38;7.32;;;1.90;;
69030;SDS011;56083;48.774;8.942;2023-04-24T03:38:04;3.97;;;2.05;;
69030;SDS011;56083;48.774;8.942;2023-04-24T03:40:29;5.47;;;2.28;;
69030;SDS011;56083;48.774;8.942;2023-04-24T03:42:55;8.88;;;3.08;;
69030;SDS011;56083;48.774;8.942;2023-04-24T03:45:21;12.10;;;4.47;;
69030;SDS011;56083;48.774;8.942;2023-04-24T03:47:46;8.52;;;4.05;;
69030;SDS011;56083;48.774;8.942;2023-04-24T03:50:12;10.90;;;3.33;;
69030;SDS011;56083;48.774;8.942;2023-04-24T03:52:38;6.68;;;2.83;;
69030;SDS011;56083;48.774;8.942;2023-04-24T03:55:03;6.32;;;2.55;;
69030;SDS011;56083;48.774;8.942;2023-04-24T03:57:29;7.72;;;2.10;;
69030;SDS011;56083;48.774;8.942;2023-04-24T03:59:55;7.13;;;2.78;;
69030;SDS011;56083;48.774;8.942;2023-04-24T04:02:20;4.72;;;2.25;;
69030;SDS011;56083;48.774;8.942;2023-04-24T04:04:46;2.35;;;1.40;;
69030;SDS011;56083;48.774;8.942;2023-04-24T04:07:12;2.17;;;1.30;;
69030;SDS011;56083;48.774;8.942;2023-04-24T04:09:37;7.57;;;1.90;;
69030;SDS011;56083;48.774;8.942;2023-04-24T04:12:03;7.13;;;1.55;;
69030;SDS011;56083;48.774;8.942;2023-04-24T04:14:29;2.78;;;1.02;;
69030;SDS011;56083;48.774;8.942;2023-04-24T04:16:54;2.95;;;1.00;;
69030;SDS011;56083;48.774;8.942;2023-04-24T04:19:20;1.40;;;0.90;;
69030;SDS011;56083;48.774;8.942;2023-04-24T04:21:46;2.25;;;1.88;;
69030;SDS011;56083;48.774;8.942;2023-04-24T04:24:17;15.98;;;10.10;;
69030;SDS011;56083;48.774;8.942;2023-04-24T04:26:42;6.95;;;5.05;;
69030;SDS011;56083;48.774;8.942;2023-04-24T04:29:11;3.10;;;1.98;;
69030;SDS011;56083;48.774;8.942;2023-04-24T04:31:38;1.85;;;1.38;;
69030;SDS011;56083;48.774;8.942;2023-04-24T04:34:04;5.68;;;1.63;;
69030;SDS011;56083;48.774;8.942;2023-04-24T04:36:29;3.85;;;1.27;;
69030;SDS011;56083;48.774;8.942;2023-04-24T04:38:56;3.70;;;1.80;;
69030;SDS011;56083;48.774;8.942;2023-04-24T04:41:21;3.10;;;1.50;;
69030;SDS011;56083;48.774;8.942;2023-04-24T04:43:47;2.83;;;1.50;;
69030;SDS011;56083;48.774;8.942;2023-04-24T04:46:13;3.67;;;1.50;;
69030;SDS011;56083;48.774;8.942;2023-04-24T04:48:39;2.70;;;1.17;;
69030;SDS011;56083;48.774;8.942;2023-04-24T04:51:05;3.40;;;1.50;;
69030;SDS011;56083;48.774;8.942;2023-04-24T04:53:31;2.35;;;1.35;;
69030;SDS011;56083;48.774;8.942;2023-04-24T04:55:56;4.13;;;1.35;;
69030;SDS011;56083;48.774;8.942;2023-04-24T04:58:22;3.55;;;1.33;;
69030;SDS011;56083;48.774;8.942;2023-04-24T05:00:48;4.78;;;1.70;;
69030;SDS011;56083;48.774;8.942;2023-04-24T05:03:14;3.30;;;1.63;;
69030;SDS011;56083;48.774;8.942;2023-04-24T05:05:40;4.22;;;1.95;;
69030;SDS011;56083;48.774;8.942;2023-04-24T05:08:06;3.50;;;1.40;;
69030;SDS011;56083;48.774;8.942;2023-04-24T05:10:32;2.90;;;1.50;;
69030;SDS011;56083;48.774;8.942;2023-04-24T05:12:58;4.55;;;1.60;;
69030;SDS011;56083;48.774;8.942;2023-04-24T05:15:23;4.65;;;1.70;;
69030;SDS011;56083;48.774;8.942;2023-04-24T05:17:50;2.58;;;1.80;;
69030;SDS011;56083;48.774;8.942;2023-04-24T05:20:16;3.15;;;1.73;;
69030;SDS011;56083;48.774;8.942;2023-04-24T05:22:42;2.90;;;1.63;;
69030;SDS011;56083;48.774;8.942;2023-04-24T05:25:08;4.22;;;2.00;;
69030;SDS011;56083;48.774;8.942;2023-04-24T05:27:34;3.10;;;1.90;;
69030;SDS011;56083;48.774;8.942;2023-04-24T05:30:00;3.42;;;1.85;;
69030;SDS011;56083;48.774;8.942;2023-04-24T05:32:25;4.53;;;2.05;;
69030;SDS011;56083;48.774;8.942;2023-04-24T05:34:52;3.90;;;2.25;;
69030;SDS011;56083;48.774;8.942;2023-04-24T05:37:18;3.00;;;1.90;;
69030;SDS011;56083;48.774;8.942;2023-04-24T05:39:44;3.83;;;1.80;;
69030;SDS011;56083;48.774;8.942;2023-04-24T05:42:10;3.38;;;1.88;;
69030;SDS011;56083;48.774;8.942;2023-04-24T05:44:35;2.63;;;1.95;;
69030;SDS011;56083;48.774;8.942;2023-04-24T05:47:01;4.82;;;2.20;;
69030;SDS011;56083;48.774;8.942;2023-04-24T05:49:27;3.67;;;2.17;;
69030;SDS011;56083;48.774;8.942;2023-04-24T05:51:53;3.72;;;2.13;;
69030;SDS011;56083;48.774;8.942;2023-04-24T05:54:19;3.42;;;2.10;;
69030;SDS011;56083;48.774;8.942;2023-04-24T05:56:44;3.10;;;2.08;;
69030;SDS011;56083;48.774;8.942;2023-04-24T05:59:11;4.10;;;2.30;;
69030;SDS011;56083;48.774;8.942;2023-04-24T06:01:36;4.07;;;2.15;;
69030;SDS011;56083;48.774;8.942;2023-04-24T06:04:03;4.93;;;2.25;;
69030;SDS011;56083;48.774;8.942;2023-04-24T06:06:29;8.23;;;2.47;;
69030;SDS011;56083;48.774;8.942;2023-04-24T06:08:56;3.55;;;2.20;;
69030;SDS011;56083;48.774;8.942;2023-04-24T06:11:22;5.03;;;2.30;;
69030;SDS011;56083;48.774;8.942;2023-04-24T06:13:48;5.57;;;2.47;;
69030;SDS011;56083;48.774;8.942;2023-04-24T06:16:13;3.42;;;1.90;;
69030;SDS011;56083;48.774;8.942;2023-04-24T06:18:39;5.40;;;2.42;;
69030;SDS011;56083;48.774;8.942;2023-04-24T06:21:05;6.82;;;2.28;;
69030;SDS011;56083;48.774;8.942;2023-04-24T06:23:31;5.45;;;1.90;;
69030;SDS011;56083;48.774;8.942;2023-04-24T06:25:58;3.67;;;1.73;;
69030;SDS011;56083;48.774;8.942;2023-04-24T06:28:24;2.88;;;1.90;;
69030;SDS011;56083;48.774;8.942;2023-04-24T06:30:50;3.65;;;1.88;;
69030;SDS011;56083;48.774;8.942;2023-04-24T06:33:15;2.40;;;1.50;;
69030;SDS011;56083;48.774;8.942;2023-04-24T06:35:41;2.92;;;1.80;;
69030;SDS011;56083;48.774;8.942;2023-04-24T06:38:07;2.65;;;1.70;;
69030;SDS011;56083;48.774;8.942;2023-04-24T06:40:33;5.80;;;1.98;;
69030;SDS011;56083;48.774;8.942;2023-04-24T06:42:59;4.30;;;1.75;;
69030;SDS011;56083;48.774;8.942;2023-04-24T06:45:27;2.33;;;1.52;;
69030;SDS011;56083;48.774;8.942;2023-04-24T06:47:54;3.65;;;1.85;;
69030;SDS011;56083;48.774;8.942;2023-04-24T06:50:19;5.05;;;2.58;;
69030;SDS011;56083;48.774;8.942;2023-04-24T06:52:45;4.35;;;2.03;;
69030;SDS011;56083;48.774;8.942;2023-04-24T06:55:11;4.03;;;1.60;;
69030;SDS011;56083;48.774;8.942;2023-04-24T06:57:37;6.18;;;1.65;;
69030;SDS011;56083;48.774;8.942;2023-04-24T07:00:03;3.15;;;1.83;;
69030;SDS011;56083;48.774;8.942;2023-04-24T07:02:31;3.58;;;2.17;;
69030;SDS011;56083;48.774;8.942;2023-04-24T07:04:57;6.20;;;2.03;;
69030;SDS011;56083;48.774;8.942;2023-04-24T07:07:22;4.22;;;1.67;;
69030;SDS011;56083;48.774;8.942;2023-04-24T07:09:48;3.63;;;1.50;;
69030;SDS011;56083;48.774;8.942;2023-04-24T07:12:15;4.07;;;1.27;;
69030;SDS011;56083;48.774;8.942;2023-04-24T07:14:42;4.00;;;1.60;;
69030;SDS011;56083;48.774;8.942;2023-04-24T07:17:08;2.33;;;1.20;;
69030;SDS011;56083;48.774;8.942;2023-04-24T07:19:34;4.35;;;1.48;;
69030;SDS011;56083;48.774;8.942;2023-04-24T07:22:02;4.32;;;1.50;;
69030;SDS011;56083;48.774;8.942;2023-04-24T07:24:28;1.90;;;1.10;;
69030;SDS011;56083;48.774;8.942;2023-04-24T07:26:57;4.03;;;1.08;;
69030;SDS011;56083;48.774;8.942;2023-04-24T07:29:22;3.58;;;1.30;;
69030;SDS011;56083;48.774;8.942;2023-04-24T07:31:48;5.22;;;1.20;;
69030;SDS011;56083;48.774;8.942;2023-04-24T07:34:14;3.22;;;1.25;;
69030;SDS011;56083;48.774;8.942;2023-04-24T07:36:40;3.47;;;1.20;;
69030;SDS011;56083;48.774;8.942;2023-04-24T07:39:06;1.92;;;1.15;;
69030;SDS011;56083;48.774;8.942;2023-04-24T07:41:32;4.00;;;1.23;;
69030;SDS011;56083;48.774;8.942;2023-04-24T07:43:58;4.90;;;1.30;;
69030;SDS011;56083;48.774;8.942;2023-04-24T07:46:24;3.75;;;1.15;;
69030;SDS011;56083;48.774;8.942;2023-04-24T07:48:49;3.50;;;1.05;;
69030;SDS011;56083;48.774;8.942;2023-04-24T07:51:15;1.35;;;1.00;;
69030;SDS011;56083;48.774;8.942;2023-04-24T07:53:42;3.28;;;0.98;;
69030;SDS011;56083;48.774;8.942;2023-04-24T07:56:08;5.53;;;1.42;;
69030;SDS011;56083;48.774;8.942;2023-04-24T07:58:34;4.07;;;1.25;;
69030;SDS011;56083;48.774;8.942;2023-04-24T08:01:00;3.47;;;1.38;;
69030;SDS011;56083;48.774;8.942;2023-04-24T08:03:25;2.75;;;0.98;;
69030;SDS011;56083;48.774;8.942;2023-04-24T08:05:51;5.55;;;1.38;;
69030;SDS011;56083;48.774;8.942;2023-04-24T08:08:17;2.60;;;1.10;;
69030;SDS011;56083;48.774;8.942;2023-04-24T08:10:45;3.13;;;1.40;;
69030;SDS011;56083;48.774;8.942;2023-04-24T08:13:10;3.83;;;1.15;;
69030;SDS011;56083;48.774;8.942;2023-04-24T08:15:36;6.85;;;1.23;;
69030;SDS011;56083;48.774;8.942;2023-04-24T08:18:02;1.60;;;1.20;;
69030;SDS011;56083;48.774;8.942;2023-04-24T08:20:28;3.05;;;1.25;;
69030;SDS011;56083;48.774;8.942;2023-04-24T08:22:53;4.90;;;1.52;;
69030;SDS011;56083;48.774;8.942;2023-04-24T08:25:20;4.45;;;1.25;;
69030;SDS011;56083;48.774;8.942;2023-04-24T08:27:47;4.75;;;1.67;;
69030;SDS011;56083;48.774;8.942;2023-04-24T08:30:13;3.00;;;1.38;;
69030;SDS011;56083;48.774;8.942;2023-04-24T08:32:39;6.10;;;1.15;;
69030;SDS011;56083;48.774;8.942;2023-04-24T08:35:05;2.58;;;1.50;;
69030;SDS011;56083;48.774;8.942;2023-04-24T08:37:34;2.45;;;1.33;;
69030;SDS011;56083;48.774;8.942;2023-04-24T08:39:59;3.60;;;1.60;;
69030;SDS011;56083;48.774;8.942;2023-04-24T08:42:25;3.17;;;1.30;;
69030;SDS011;56083;48.774;8.942;2023-04-24T08:44:53;6.55;;;1.50;;
69030;SDS011;56083;48.774;8.942;2023-04-24T08:47:19;4.70;;;1.48;;
69030;SDS011;56083;48.774;8.942;2023-04-24T08:49:46;4.88;;;2.10;;
69030;SDS011;56083;48.774;8.942;2023-04-24T08:52:13;3.35;;;1.30;;
69030;SDS011;56083;48.774;8.942;2023-04-24T08:54:41;3.60;;;1.40;;
69030;SDS011;56083;48.774;8.942;2023-04-24T08:57:08;5.38;;;1.98;;
69030;SDS011;56083;48.774;8.942;2023-04-24T08:59:36;4.97;;;1.48;;
69030;SDS011;56083;48.774;8.942;2023-04-24T09:02:03;2.03;;;1.38;;
69030;SDS011;56083;48.774;8.942;2023-04-24T09:04:29;3.17;;;1.42;;
69030;SDS011;56083;48.774;8.942;2023-04-24T09:06:58;3.80;;;1.70;;
69030;SDS011;56083;48.774;8.942;2023-04-24T09:09:25;4.00;;;1.58;;
69030;SDS011;56083;48.774;8.942;2023-04-24T09:11:51;4.75;;;1.33;;
69030;SDS011;56083;48.774;8.942;2023-04-24T09:14:20;3.70;;;1.40;;
69030;SDS011;56083;48.774;8.942;2023-04-24T09:16:47;2.40;;;1.33;;
69030;SDS011;56083;48.774;8.942;2023-04-24T09:19:13;2.40;;;1.60;;
69030;SDS011;56083;48.774;8.942;2023-04-24T09:21:38;3.70;;;1.63;;
69030;SDS011;56083;48.774;8.942;2023-04-24T09:24:07;3.88;;;1.35;;
69030;SDS011;56083;48.774;8.942;2023-04-24T09:26:39;4.93;;;1.10;;
69030;SDS011;56083;48.774;8.942;2023-04-24T09:29:05;3.80;;;1.38;;
69030;SDS011;56083;48.774;8.942;2023-04-24T09:31:31;3.35;;;1.20;;
69030;SDS011;56083;48.774;8.942;2023-04-24T09:33:58;3.45;;;1.20;;
69030;SDS011;56083;48.774;8.942;2023-04-24T09:36:32;4.53;;;1.42;;
69030;SDS011;56083;48.774;8.942;2023-04-24T09:39:02;1.92;;;1.02;;
69030;SDS011;56083;48.774;8.942;2023-04-24T09:41:29;4.15;;;1.20;;
69030;SDS011;56083;48.774;8.942;2023-04-24T09:43:56;5.68;;;1.25;;
69030;SDS011;56083;48.774;8.942;2023-04-24T09:46:30;4.30;;;1.20;;
69030;SDS011;56083;48.774;8.942;2023-04-24T09:49:03;1.90;;;0.95;;
69030;SDS011;56083;48.774;8.942;2023-04-24T09:51:38;2.20;;;1.10;;
69030;SDS011;56083;48.774;8.942;2023-04-24T09:54:04;2.97;;;1.20;;
69030;SDS011;56083;48.774;8.942;2023-04-24T09:56:35;4.78;;;1.10;;
69030;SDS011;56083;48.774;8.942;2023-04-24T09:59:07;3.15;;;1.15;;
69030;SDS011;56083;48.774;8.942;2023-04-24T10:01:34;4.18;;;1.00;;
69030;SDS011;56083;48.774;8.942;2023-04-24T10:04:01;1.58;;;0.80;;
69030;SDS011;56083;48.774;8.942;2023-04-24T10:06:32;3.10;;;0.90;;
69030;SDS011;56083;48.774;8.942;2023-04-24T10:08:58;3.78;;;0.90;;
69030;SDS011;56083;48.774;8.942;2023-04-24T10:11:28;3.00;;;1.13;;
69030;SDS011;56083;48.774;8.942;2023-04-24T10:13:54;3.97;;;1.00;;
69030;SDS011;56083;48.774;8.942;2023-04-24T10:16:22;1.60;;;0.80;;
69030;SDS011;56083;48.774;8.942;2023-04-24T10:18:48;3.63;;;1.00;;
69030;SDS011;56083;48.774;8.942;2023-04-24T10:21:14;2.95;;;1.20;;
69030;SDS011;56083;48.774;8.942;2023-04-24T10:23:41;3.53;;;1.05;;
69030;SDS011;56083;48.774;8.942;2023-04-24T10:26:11;3.15;;;1.05;;
69030;SDS011;56083;48.774;8.942;2023-04-24T10:28:46;1.40;;;0.98;;
69030;SDS011;56083;48.774;8.942;2023-04-24T10:31:13;1.88;;;0.90;;
69030;SDS011;56083;48.774;8.942;2023-04-24T10:33:43;2.35;;;1.08;;
69030;SDS011;56083;48.774;8.942;2023-04-24T10:36:10;4.07;;;1.02;;
69030;SDS011;56083;48.774;8.942;2023-04-24T10:38:39;2.17;;;0.93;;
69030;SDS011;56083;48.774;8.942;2023-04-24T10:41:10;4.18;;;1.10;;
69030;SDS011;56083;48.774;8.942;2023-04-24T10:43:45;1.60;;;0.80;;
69030;SDS011;56083;48.774;8.942;2023-04-24T10:46:16;1.52;;;0.80;;
69030;SDS011;56083;48.774;8.942;2023-04-24T10:48:55;4.17;;;1.20;;
69030;SDS011;56083;48.774;8.942;2023-04-24T10:51:23;1.40;;;0.70;;
69030;SDS011;56083;48.774;8.942;2023-04-24T10:53:50;2.92;;;0.82;;
69030;SDS011;56083;48.774;8.942;2023-04-24T10:56:16;1.23;;;0.90;;
69030;SDS011;56083;48.774;8.942;2023-04-24T11:01:32;1.55;;;1.00;;
69030;SDS011;56083;48.774;8.942;2023-04-24T11:04:02;2.20;;;1.15;;
69030;SDS011;56083;48.774;8.942;2023-04-24T11:06:32;3.22;;;1.25;;
69030;SDS011;56083;48.774;8.942;2023-04-24T11:09:09;2.72;;;1.23;;
69030;SDS011;56083;48.774;8.942;2023-04-24T11:11:44;3.78;;;1.10;;
69030;SDS011;56083;48.774;8.942;2023-04-24T11:14:10;2.83;;;1.23;;
69030;SDS011;56083;48.774;8.942;2023-04-24T11:16:53;1.20;;;0.80;;
69030;SDS011;56083;48.774;8.942;2023-04-24T11:19:23;1.85;;;1.00;;
69030;SDS011;56083;48.774;8.942;2023-04-24T11:24:29;2.47;;;0.90;;
69030;SDS011;56083;48.774;8.942;2023-04-24T11:30:16;3.03;;;1.00;;
69030;SDS011;56083;48.774;8.942;2023-04-24T11:35:02;2.70;;;0.90;;
69030;SDS011;56083;48.774;8.942;2023-04-24T11:37:38;4.50;;;1.00;;
69030;SDS011;56083;48.774;8.942;2023-04-24T11:40:06;3.17;;;1.00;;
69030;SDS011;56083;48.774;8.942;2023-04-24T11:42:36;2.22;;;1.00;;
69030;SDS011;56083;48.774;8.942;2023-04-24T11:47:36;2.25;;;1.30;;
69030;SDS011;56083;48.774;8.942;2023-04-24T11:50:03;3.75;;;1.42;;
69030;SDS011;56083;48.774;8.942;2023-04-24T11:52:31;1.40;;;1.10;;
69030;SDS011;56083;48.774;8.942;2023-04-24T11:54:56;2.75;;;1.17;;
69030;SDS011;56083;48.774;8.942;2023-04-24T11:57:24;3.53;;;1.17;;
69030;SDS011;56083;48.774;8.942;2023-04-24T11:59:52;4.35;;;1.15;;
69030;SDS011;56083;48.774;8.942;2023-04-24T12:02:19;2.47;;;1.23;;
69030;SDS011;56083;48.774;8.942;2023-04-24T12:04:49;2.00;;;1.00;;
69030;SDS011;56083;48.774;8.942;2023-04-24T12:07:16;4.05;;;1.05;;
69030;SDS011;56083;48.774;8.942;2023-04-24T12:09:45;3.08;;;1.17;;
69030;SDS011;56083;48.774;8.942;2023-04-24T12:12:13;1.90;;;1.00;;
69030;SDS011;56083;48.774;8.942;2023-04-24T12:14:44;3.88;;;1.20;;
69030;SDS011;56083;48.774;8.942;2023-04-24T12:17:32;4.30;;;1.20;;
69030;SDS011;56083;48.774;8.942;2023-04-24T12:19:59;4.38;;;1.40;;
69030;SDS011;56083;48.774;8.942;2023-04-24T12:22:27;3.88;;;1.10;;
69030;SDS011;56083;48.774;8.942;2023-04-24T12:25:15;1.85;;;0.93;;
69030;SDS011;56083;48.774;8.942;2023-04-24T12:27:46;2.67;;;0.88;;
69030;SDS011;56083;48.774;8.942;2023-04-24T12:30:17;2.85;;;1.10;;
69030;SDS011;56083;48.774;8.942;2023-04-24T12:32:47;3.20;;;1.10;;
69030;SDS011;56083;48.774;8.942;2023-04-24T12:35:18;4.18;;;1.25;;
69030;SDS011;56083;48.774;8.942;2023-04-24T12:37:45;2.97;;;1.23;;
69030;SDS011;56083;48.774;8.942;2023-04-24T12:40:12;8.35;;;3.35;;
69030;SDS011;56083;48.774;8.942;2023-04-24T12:42:45;2.75;;;1.25;;
69030;SDS011;56083;48.774;8.942;2023-04-24T12:45:17;1.77;;;1.20;;
69030;SDS011;56083;48.774;8.942;2023-04-24T12:47:43;3.28;;;1.27;;
69030;SDS011;56083;48.774;8.942;2023-04-24T12:50:11;5.07;;;1.30;;
69030;SDS011;56083;48.774;8.942;2023-04-24T12:52:40;2.33;;;1.30;;
69030;SDS011;56083;48.774;8.942;2023-04-24T12:55:06;3.50;;;1.25;;
69030;SDS011;56083;48.774;8.942;2023-04-24T12:57:33;2.22;;;1.30;;
69030;SDS011;56083;48.774;8.942;2023-04-24T13:00:04;1.92;;;1.48;;
69030;SDS011;56083;48.774;8.942;2023-04-24T13:02:30;2.88;;;1.38;;
69030;SDS011;56083;48.774;8.942;2023-04-24T13:04:57;3.30;;;1.20;;
69030;SDS011;56083;48.774;8.942;2023-04-24T13:07:23;5.47;;;1.45;;
69030;SDS011;56083;48.774;8.942;2023-04-24T13:09:49;3.78;;;1.40;;
69030;SDS011;56083;48.774;8.942;2023-04-24T13:12:16;3.70;;;1.33;;
69030;SDS011;56083;48.774;8.942;2023-04-24T13:14:42;5.75;;;1.42;;
69030;SDS011;56083;48.774;8.942;2023-04-24T13:17:11;4.28;;;1.38;;
69030;SDS011;56083;48.774;8.942;2023-04-24T13:19:38;6.65;;;1.30;;
69030;SDS011;56083;48.774;8.942;2023-04-24T13:22:05;3.38;;;1.40;;
69030;SDS011;56083;48.774;8.942;2023-04-24T13:24:32;1.73;;;1.20;;
69030;SDS011;56083;48.774;8.942;2023-04-24T13:26:58;4.35;;;1.50;;
69030;SDS011;56083;48.774;8.942;2023-04-24T13:29:25;1.52;;;1.20;;
69030;SDS011;56083;48.774;8.942;2023-04-24T13:31:51;3.28;;;1.45;;
69030;SDS011;56083;48.774;8.942;2023-04-24T13:34:19;3.95;;;1.33;;
69030;SDS011;56083;48.774;8.942;2023-04-24T13:36:44;2.00;;;1.20;;
69030;SDS011;56083;48.774;8.942;2023-04-24T13:39:10;1.83;;;1.23;;
69030;SDS011;56083;48.774;8.942;2023-04-24T13:41:36;1.58;;;1.00;;
69030;SDS011;56083;48.774;8.942;2023-04-24T13:44:02;0.77;;;0.70;;
69030;SDS011;56083;48.774;8.942;2023-04-24T13:46:29;1.27;;;0.85;;
69030;SDS011;56083;48.774;8.942;2023-04-24T13:48:56;1.75;;;1.08;;
69030;SDS011;56083;48.774;8.942;2023-04-24T13:51:23;3.88;;;1.35;;
69030;SDS011;56083;48.774;8.942;2023-04-24T13:53:52;3.13;;;1.30;;
69030;SDS011;56083;48.774;8.942;2023-04-24T13:56:18;2.75;;;1.38;;
69030;SDS011;56083;48.774;8.942;2023-04-24T13:58:43;2.25;;;1.40;;
69030;SDS011;56083;48.774;8.942;2023-04-24T14:01:09;3.00;;;1.50;;
69030;SDS011;56083;48.774;8.942;2023-04-24T14:03:35;1.98;;;1.30;;
69030;SDS011;56083;48.774;8.942;2023-04-24T14:06:02;2.28;;;1.27;;
69030;SDS011;56083;48.774;8.942;2023-04-24T14:08:28;2.10;;;1.20;;
69030;SDS011;56083;48.774;8.942;2023-04-24T14:10:53;3.58;;;1.50;;
69030;SDS011;56083;48.774;8.942;2023-04-24T14:13:19;1.33;;;1.10;;
69030;SDS011;56083;48.774;8.942;2023-04-24T14:15:45;1.98;;;1.40;;
69030;SDS011;56083;48.774;8.942;2023-04-24T14:18:11;3.58;;;1.30;;
69030;SDS011;56083;48.774;8.942;2023-04-24T14:20:37;2.47;;;1.42;;
69030;SDS011;56083;48.774;8.942;2023-04-24T14:23:03;2.85;;;1.10;;
69030;SDS011;56083;48.774;8.942;2023-04-24T14:25:29;2.55;;;1.33;;
69030;SDS011;56083;48.774;8.942;2023-04-24T14:27:55;3.17;;;1.40;;
69030;SDS011;56083;48.774;8.942;2023-04-24T14:30:21;3.60;;;1.35;;
69030;SDS011;56083;48.774;8.942;2023-04-24T14:32:47;2.58;;;1.27;;
69030;SDS011;56083;48.774;8.942;2023-04-24T14:35:13;2.63;;;1.60;;
69030;SDS011;56083;48.774;8.942;2023-04-24T14:37:39;2.85;;;1.33;;
69030;SDS011;56083;48.774;8.942;2023-04-24T14:40:07;2.75;;;1.40;;
69030;SDS011;56083;48.774;8.942;2023-04-24T14:42:34;2.35;;;1.40;;
69030;SDS011;56083;48.774;8.942;2023-04-24T14:45:00;3.70;;;1.40;;
69030;SDS011;56083;48.774;8.942;2023-04-24T14:47:26;1.65;;;1.33;;
69030;SDS011;56083;48.774;8.942;2023-04-24T14:49:53;2.53;;;1.33;;
69030;SDS011;56083;48.774;8.942;2023-04-24T14:52:20;4.10;;;1.55;;
69030;SDS011;56083;48.774;8.942;2023-04-24T14:54:45;3.65;;;1.90;;
69030;SDS011;56083;48.774;8.942;2023-04-24T14:57:11;5.45;;;1.80;;
69030;SDS011;56083;48.774;8.942;2023-04-24T14:59:37;2.97;;;1.80;;